sensor_id;sensor_type;location;lat;lon;timestamp;temperature;humidity
50738;DHT22;36703;48.154;17.126;2023-03-12T00:02:01;8.20;38.30
50738;DHT22;36703;48.154;17.126;2023-03-12T00:06:03;8.10;38.50
50738;DHT22;36703;48.154;17.126;2023-03-12T00:10:04;8.10;38.60
50738;DHT22;36703;48.154;17.126;2023-03-12T00:14:06;8.00;38.60
50738;DHT22;36703;48.154;17.126;2023-03-12T00:18:08;8.00;38.60
50738;DHT22;36703;48.154;17.126;2023-03-12T00:22:09;8.10;38.60
50738;DHT22;36703;48.154;17.126;2023-03-12T00:26:12;8.10;38.70
50738;DHT22;36703;48.154;17.126;2023-03-12T00:30:13;8.00;38.70
50738;DHT22;36703;48.154;17.126;2023-03-12T00:34:15;8.10;38.60
50738;DHT22;36703;48.154;17.126;2023-03-12T00:38:16;8.00;38.50
50738;DHT22;36703;48.154;17.126;2023-03-12T00:42:18;8.10;38.70
50738;DHT22;36703;48.154;17.126;2023-03-12T00:46:19;8.10;38.70
50738;DHT22;36703;48.154;17.126;2023-03-12T00:50:21;8.00;38.50
50738;DHT22;36703;48.154;17.126;2023-03-12T00:54:22;8.00;38.70
50738;DHT22;36703;48.154;17.126;2023-03-12T00:58:24;8.00;38.60
50738;DHT22;36703;48.154;17.126;2023-03-12T01:02:25;7.90;38.60
50738;DHT22;36703;48.154;17.126;2023-03-12T01:06:26;7.90;38.60
50738;DHT22;36703;48.154;17.126;2023-03-12T01:10:28;7.80;38.70
50738;DHT22;36703;48.154;17.126;2023-03-12T01:14:29;7.80;38.70
50738;DHT22;36703;48.154;17.126;2023-03-12T01:18:30;7.80;38.80
50738;DHT22;36703;48.154;17.126;2023-03-12T01:22:32;7.80;38.70
50738;DHT22;36703;48.154;17.126;2023-03-12T01:26:34;7.80;38.70
50738;DHT22;36703;48.154;17.126;2023-03-12T01:30:35;7.80;38.80
50738;DHT22;36703;48.154;17.126;2023-03-12T01:34:36;7.70;38.80
50738;DHT22;36703;48.154;17.126;2023-03-12T01:38:38;7.60;38.90
50738;DHT22;36703;48.154;17.126;2023-03-12T01:42:40;7.60;38.90
50738;DHT22;36703;48.154;17.126;2023-03-12T01:46:42;7.70;38.90
50738;DHT22;36703;48.154;17.126;2023-03-12T01:50:47;7.70;38.80
50738;DHT22;36703;48.154;17.126;2023-03-12T01:54:51;7.70;38.90
50738;DHT22;36703;48.154;17.126;2023-03-12T01:59:15;7.70;38.80
50738;DHT22;36703;48.154;17.126;2023-03-12T02:03:19;7.70;38.80
50738;DHT22;36703;48.154;17.126;2023-03-12T02:07:20;7.80;38.80
50738;DHT22;36703;48.154;17.126;2023-03-12T02:11:22;7.80;38.80
50738;DHT22;36703;48.154;17.126;2023-03-12T02:15:23;7.80;38.70
50738;DHT22;36703;48.154;17.126;2023-03-12T02:23:59;7.80;38.70
50738;DHT22;36703;48.154;17.126;2023-03-12T02:28:06;7.80;38.80
50738;DHT22;36703;48.154;17.126;2023-03-12T02:32:14;7.80;38.80
50738;DHT22;36703;48.154;17.126;2023-03-12T02:36:19;7.70;38.80
50738;DHT22;36703;48.154;17.126;2023-03-12T02:44:30;7.70;38.80
50738;DHT22;36703;48.154;17.126;2023-03-12T02:48:33;7.80;38.80
50738;DHT22;36703;48.154;17.126;2023-03-12T02:52:35;7.70;38.80
50738;DHT22;36703;48.154;17.126;2023-03-12T02:56:38;7.60;38.90
50738;DHT22;36703;48.154;17.126;2023-03-12T03:00:40;7.60;38.90
50738;DHT22;36703;48.154;17.126;2023-03-12T03:04:41;7.60;38.90
50738;DHT22;36703;48.154;17.126;2023-03-12T03:08:43;7.60;38.90
50738;DHT22;36703;48.154;17.126;2023-03-12T03:12:44;7.50;39.00
50738;DHT22;36703;48.154;17.126;2023-03-12T03:16:46;7.40;39.10
50738;DHT22;36703;48.154;17.126;2023-03-12T03:20:57;7.40;39.20
50738;DHT22;36703;48.154;17.126;2023-03-12T03:25:06;7.30;39.20
50738;DHT22;36703;48.154;17.126;2023-03-12T03:29:09;7.30;39.30
50738;DHT22;36703;48.154;17.126;2023-03-12T03:33:11;7.20;39.40
50738;DHT22;36703;48.154;17.126;2023-03-12T03:37:12;7.20;39.50
50738;DHT22;36703;48.154;17.126;2023-03-12T03:41:15;7.30;39.50
50738;DHT22;36703;48.154;17.126;2023-03-12T03:45:20;7.30;39.50
50738;DHT22;36703;48.154;17.126;2023-03-12T03:49:21;7.40;39.40
50738;DHT22;36703;48.154;17.126;2023-03-12T03:53:23;7.40;39.30
50738;DHT22;36703;48.154;17.126;2023-03-12T03:57:25;7.40;39.30
50738;DHT22;36703;48.154;17.126;2023-03-12T04:01:27;7.40;39.30
50738;DHT22;36703;48.154;17.126;2023-03-12T04:05:30;7.40;39.30
50738;DHT22;36703;48.154;17.126;2023-03-12T04:09:32;7.40;39.40
50738;DHT22;36703;48.154;17.126;2023-03-12T04:13:34;7.40;39.30
50738;DHT22;36703;48.154;17.126;2023-03-12T04:17:35;7.50;39.30
50738;DHT22;36703;48.154;17.126;2023-03-12T04:21:37;7.50;39.30
50738;DHT22;36703;48.154;17.126;2023-03-12T04:25:40;7.40;39.20
50738;DHT22;36703;48.154;17.126;2023-03-12T04:29:41;7.40;39.30
50738;DHT22;36703;48.154;17.126;2023-03-12T04:33:43;7.40;39.30
50738;DHT22;36703;48.154;17.126;2023-03-12T04:37:45;7.40;39.40
50738;DHT22;36703;48.154;17.126;2023-03-12T04:41:47;7.40;39.40
50738;DHT22;36703;48.154;17.126;2023-03-12T04:45:50;7.30;39.50
50738;DHT22;36703;48.154;17.126;2023-03-12T04:49:51;7.30;39.50
50738;DHT22;36703;48.154;17.126;2023-03-12T04:53:53;7.40;39.50
50738;DHT22;36703;48.154;17.126;2023-03-12T04:57:54;7.30;39.50
50738;DHT22;36703;48.154;17.126;2023-03-12T05:01:57;7.40;39.60
50738;DHT22;36703;48.154;17.126;2023-03-12T05:06:02;7.40;39.60
50738;DHT22;36703;48.154;17.126;2023-03-12T05:10:04;7.40;39.60
50738;DHT22;36703;48.154;17.126;2023-03-12T05:14:06;7.30;39.60
50738;DHT22;36703;48.154;17.126;2023-03-12T05:18:09;7.30;39.70
50738;DHT22;36703;48.154;17.126;2023-03-12T05:22:11;7.20;39.80
50738;DHT22;36703;48.154;17.126;2023-03-12T05:26:17;7.30;39.80
50738;DHT22;36703;48.154;17.126;2023-03-12T05:30:20;7.40;39.70
50738;DHT22;36703;48.154;17.126;2023-03-12T05:34:22;7.40;39.60
50738;DHT22;36703;48.154;17.126;2023-03-12T05:38:24;7.30;39.60
50738;DHT22;36703;48.154;17.126;2023-03-12T05:42:27;7.30;39.70
50738;DHT22;36703;48.154;17.126;2023-03-12T05:46:30;7.30;39.70
50738;DHT22;36703;48.154;17.126;2023-03-12T05:50:33;7.30;39.60
50738;DHT22;36703;48.154;17.126;2023-03-12T05:54:34;7.40;39.60
50738;DHT22;36703;48.154;17.126;2023-03-12T05:58:37;7.50;39.60
50738;DHT22;36703;48.154;17.126;2023-03-12T06:02:39;7.60;39.50
50738;DHT22;36703;48.154;17.126;2023-03-12T06:06:40;7.60;39.30
50738;DHT22;36703;48.154;17.126;2023-03-12T06:10:43;7.40;39.50
50738;DHT22;36703;48.154;17.126;2023-03-12T06:14:45;7.20;40.00
50738;DHT22;36703;48.154;17.126;2023-03-12T06:18:46;7.00;40.30
50738;DHT22;36703;48.154;17.126;2023-03-12T06:22:50;7.00;40.50
50738;DHT22;36703;48.154;17.126;2023-03-12T06:26:51;7.00;40.50
50738;DHT22;36703;48.154;17.126;2023-03-12T06:30:53;7.00;40.60
50738;DHT22;36703;48.154;17.126;2023-03-12T06:34:55;6.90;40.60
50738;DHT22;36703;48.154;17.126;2023-03-12T06:38:56;6.90;40.80
50738;DHT22;36703;48.154;17.126;2023-03-12T06:42:57;6.90;40.90
50738;DHT22;36703;48.154;17.126;2023-03-12T06:46:59;7.00;41.50
50738;DHT22;36703;48.154;17.126;2023-03-12T06:51:01;7.10;40.80
50738;DHT22;36703;48.154;17.126;2023-03-12T06:55:06;7.10;40.60
50738;DHT22;36703;48.154;17.126;2023-03-12T06:59:07;7.10;40.80
50738;DHT22;36703;48.154;17.126;2023-03-12T07:03:09;7.10;41.00
50738;DHT22;36703;48.154;17.126;2023-03-12T07:07:10;7.20;41.00
50738;DHT22;36703;48.154;17.126;2023-03-12T07:11:12;7.30;40.90
50738;DHT22;36703;48.154;17.126;2023-03-12T07:15:13;7.60;40.80
50738;DHT22;36703;48.154;17.126;2023-03-12T07:19:15;7.70;40.50
50738;DHT22;36703;48.154;17.126;2023-03-12T07:23:16;7.80;40.40
50738;DHT22;36703;48.154;17.126;2023-03-12T07:31:19;8.00;40.30
50738;DHT22;36703;48.154;17.126;2023-03-12T07:39:23;8.40;39.80
50738;DHT22;36703;48.154;17.126;2023-03-12T07:43:26;8.70;39.50
50738;DHT22;36703;48.154;17.126;2023-03-12T07:47:29;8.80;39.30
50738;DHT22;36703;48.154;17.126;2023-03-12T07:51:30;8.80;39.00
50738;DHT22;36703;48.154;17.126;2023-03-12T07:55:33;9.00;39.00
50738;DHT22;36703;48.154;17.126;2023-03-12T07:59:34;9.00;38.70
50738;DHT22;36703;48.154;17.126;2023-03-12T08:03:36;9.10;38.50
50738;DHT22;36703;48.154;17.126;2023-03-12T08:07:38;9.10;38.30
50738;DHT22;36703;48.154;17.126;2023-03-12T08:11:40;9.30;38.00
50738;DHT22;36703;48.154;17.126;2023-03-12T08:15:42;9.50;37.90
50738;DHT22;36703;48.154;17.126;2023-03-12T08:19:43;9.70;37.70
50738;DHT22;36703;48.154;17.126;2023-03-12T08:23:45;9.90;37.50
50738;DHT22;36703;48.154;17.126;2023-03-12T08:27:46;9.90;37.20
50738;DHT22;36703;48.154;17.126;2023-03-12T08:31:47;9.90;37.30
50738;DHT22;36703;48.154;17.126;2023-03-12T08:35:49;10.20;37.30
50738;DHT22;36703;48.154;17.126;2023-03-12T08:39:50;10.10;36.80
50738;DHT22;36703;48.154;17.126;2023-03-12T08:43:52;10.10;36.40
50738;DHT22;36703;48.154;17.126;2023-03-12T08:47:53;10.10;36.20
50738;DHT22;36703;48.154;17.126;2023-03-12T08:51:54;10.40;36.10
50738;DHT22;36703;48.154;17.126;2023-03-12T08:55:56;10.60;35.70
50738;DHT22;36703;48.154;17.126;2023-03-12T08:59:57;10.80;35.50
50738;DHT22;36703;48.154;17.126;2023-03-12T09:03:59;11.00;35.20
50738;DHT22;36703;48.154;17.126;2023-03-12T09:08:02;11.20;34.90
50738;DHT22;36703;48.154;17.126;2023-03-12T09:12:03;11.40;34.60
50738;DHT22;36703;48.154;17.126;2023-03-12T09:16:05;11.40;34.50
50738;DHT22;36703;48.154;17.126;2023-03-12T09:20:07;11.40;33.70
50738;DHT22;36703;48.154;17.126;2023-03-12T09:24:10;11.40;33.80
50738;DHT22;36703;48.154;17.126;2023-03-12T09:28:11;11.50;33.70
50738;DHT22;36703;48.154;17.126;2023-03-12T09:32:12;11.80;33.40
50738;DHT22;36703;48.154;17.126;2023-03-12T09:40:19;12.00;33.30
50738;DHT22;36703;48.154;17.126;2023-03-12T09:56:44;12.70;32.40
50738;DHT22;36703;48.154;17.126;2023-03-12T10:00:46;13.50;31.60
50738;DHT22;36703;48.154;17.126;2023-03-12T10:04:52;14.10;31.30
50738;DHT22;36703;48.154;17.126;2023-03-12T10:08:59;15.10;30.60
50738;DHT22;36703;48.154;17.126;2023-03-12T10:17:34;16.10;29.90
50738;DHT22;36703;48.154;17.126;2023-03-12T10:30:15;18.80;28.20
50738;DHT22;36703;48.154;17.126;2023-03-12T10:34:24;19.30;27.90
50738;DHT22;36703;48.154;17.126;2023-03-12T10:38:32;19.90;27.60
50738;DHT22;36703;48.154;17.126;2023-03-12T10:42:34;20.20;27.30
50738;DHT22;36703;48.154;17.126;2023-03-12T10:50:37;21.10;26.90
50738;DHT22;36703;48.154;17.126;2023-03-12T10:54:40;21.60;26.60
50738;DHT22;36703;48.154;17.126;2023-03-12T10:58:48;21.90;26.20
50738;DHT22;36703;48.154;17.126;2023-03-12T11:02:55;22.30;26.00
50738;DHT22;36703;48.154;17.126;2023-03-12T11:07:05;22.30;25.80
50738;DHT22;36703;48.154;17.126;2023-03-12T11:11:12;22.60;25.50
50738;DHT22;36703;48.154;17.126;2023-03-12T11:15:40;22.00;24.30
50738;DHT22;36703;48.154;17.126;2023-03-12T11:19:43;21.90;24.40
50738;DHT22;36703;48.154;17.126;2023-03-12T11:23:46;22.50;24.60
50738;DHT22;36703;48.154;17.126;2023-03-12T11:28:04;22.90;24.10
50738;DHT22;36703;48.154;17.126;2023-03-12T11:32:13;22.20;23.30
50738;DHT22;36703;48.154;17.126;2023-03-12T11:36:23;22.10;23.60
50738;DHT22;36703;48.154;17.126;2023-03-12T11:45:01;22.20;23.70
50738;DHT22;36703;48.154;17.126;2023-03-12T12:03:17;20.50;23.60
50738;DHT22;36703;48.154;17.126;2023-03-12T12:07:51;20.70;23.50
50738;DHT22;36703;48.154;17.126;2023-03-12T12:12:05;21.00;23.50
50738;DHT22;36703;48.154;17.126;2023-03-12T12:20:45;21.50;23.20
50738;DHT22;36703;48.154;17.126;2023-03-12T12:25:09;21.50;23.20
50738;DHT22;36703;48.154;17.126;2023-03-12T12:41:58;22.30;22.90
50738;DHT22;36703;48.154;17.126;2023-03-12T12:46:04;22.70;22.70
50738;DHT22;36703;48.154;17.126;2023-03-12T12:50:13;22.80;22.60
50738;DHT22;36703;48.154;17.126;2023-03-12T13:03:25;23.10;21.90
50738;DHT22;36703;48.154;17.126;2023-03-12T13:07:28;23.30;21.90
50738;DHT22;36703;48.154;17.126;2023-03-12T13:11:39;23.60;21.70
50738;DHT22;36703;48.154;17.126;2023-03-12T13:15:43;24.30;21.60
50738;DHT22;36703;48.154;17.126;2023-03-12T13:19:46;25.10;21.20
50738;DHT22;36703;48.154;17.126;2023-03-12T13:23:52;25.70;20.90
50738;DHT22;36703;48.154;17.126;2023-03-12T13:27:59;25.80;20.30
50738;DHT22;36703;48.154;17.126;2023-03-12T13:32:02;25.30;20.10
50738;DHT22;36703;48.154;17.126;2023-03-12T13:40:35;25.00;20.00
50738;DHT22;36703;48.154;17.126;2023-03-12T13:44:37;24.50;20.00
50738;DHT22;36703;48.154;17.126;2023-03-12T13:48:43;23.40;20.40
50738;DHT22;36703;48.154;17.126;2023-03-12T13:52:49;22.10;21.00
50738;DHT22;36703;48.154;17.126;2023-03-12T14:01:40;20.10;22.20
50738;DHT22;36703;48.154;17.126;2023-03-12T14:05:49;19.50;22.60
50738;DHT22;36703;48.154;17.126;2023-03-12T14:18:29;18.20;23.20
50738;DHT22;36703;48.154;17.126;2023-03-12T14:22:34;17.60;23.60
50738;DHT22;36703;48.154;17.126;2023-03-12T14:26:38;17.50;23.70
50738;DHT22;36703;48.154;17.126;2023-03-12T14:39:21;16.50;24.40
50738;DHT22;36703;48.154;17.126;2023-03-12T14:43:28;16.20;24.80
50738;DHT22;36703;48.154;17.126;2023-03-12T14:47:38;16.00;24.90
50738;DHT22;36703;48.154;17.126;2023-03-12T14:51:43;15.80;25.10
50738;DHT22;36703;48.154;17.126;2023-03-12T14:55:44;15.40;25.50
50738;DHT22;36703;48.154;17.126;2023-03-12T14:59:51;15.10;25.90
50738;DHT22;36703;48.154;17.126;2023-03-12T15:04:04;15.00;26.10
50738;DHT22;36703;48.154;17.126;2023-03-12T15:08:08;14.90;26.20
50738;DHT22;36703;48.154;17.126;2023-03-12T15:12:21;14.90;26.20
50738;DHT22;36703;48.154;17.126;2023-03-12T15:16:24;14.70;26.50
50738;DHT22;36703;48.154;17.126;2023-03-12T15:20:25;14.40;27.00
50738;DHT22;36703;48.154;17.126;2023-03-12T15:24:27;14.20;27.20
50738;DHT22;36703;48.154;17.126;2023-03-12T15:28:30;14.10;27.30
50738;DHT22;36703;48.154;17.126;2023-03-12T15:32:31;14.00;27.50
50738;DHT22;36703;48.154;17.126;2023-03-12T15:36:33;14.10;27.50
50738;DHT22;36703;48.154;17.126;2023-03-12T15:40:35;14.10;27.60
50738;DHT22;36703;48.154;17.126;2023-03-12T15:48:55;13.90;27.70
50738;DHT22;36703;48.154;17.126;2023-03-12T15:53:02;13.80;27.90
50738;DHT22;36703;48.154;17.126;2023-03-12T15:57:23;13.80;27.90
50738;DHT22;36703;48.154;17.126;2023-03-12T16:01:25;13.70;28.10
50738;DHT22;36703;48.154;17.126;2023-03-12T16:05:29;13.70;28.20
50738;DHT22;36703;48.154;17.126;2023-03-12T16:09:33;13.60;28.40
50738;DHT22;36703;48.154;17.126;2023-03-12T16:13:34;13.40;28.60
50738;DHT22;36703;48.154;17.126;2023-03-12T16:17:37;13.40;28.80
50738;DHT22;36703;48.154;17.126;2023-03-12T16:21:38;13.30;29.00
50738;DHT22;36703;48.154;17.126;2023-03-12T16:25:41;13.40;29.00
50738;DHT22;36703;48.154;17.126;2023-03-12T16:29:43;13.40;29.10
50738;DHT22;36703;48.154;17.126;2023-03-12T16:33:44;13.40;29.30
50738;DHT22;36703;48.154;17.126;2023-03-12T16:37:46;13.40;29.20
50738;DHT22;36703;48.154;17.126;2023-03-12T16:41:47;13.50;29.20
50738;DHT22;36703;48.154;17.126;2023-03-12T16:45:49;13.50;29.30
50738;DHT22;36703;48.154;17.126;2023-03-12T16:49:52;13.30;29.40
50738;DHT22;36703;48.154;17.126;2023-03-12T16:53:53;13.30;29.60
50738;DHT22;36703;48.154;17.126;2023-03-12T16:58:00;13.30;29.70
50738;DHT22;36703;48.154;17.126;2023-03-12T17:02:02;13.40;29.70
50738;DHT22;36703;48.154;17.126;2023-03-12T17:06:16;13.30;29.80
50738;DHT22;36703;48.154;17.126;2023-03-12T17:10:21;13.20;29.90
50738;DHT22;36703;48.154;17.126;2023-03-12T17:14:23;13.20;30.00
50738;DHT22;36703;48.154;17.126;2023-03-12T17:18:25;13.20;30.00
50738;DHT22;36703;48.154;17.126;2023-03-12T17:22:26;13.30;30.00
50738;DHT22;36703;48.154;17.126;2023-03-12T17:26:28;13.20;30.00
50738;DHT22;36703;48.154;17.126;2023-03-12T17:30:29;13.10;30.20
50738;DHT22;36703;48.154;17.126;2023-03-12T17:34:31;13.10;30.40
50738;DHT22;36703;48.154;17.126;2023-03-12T17:38:32;13.00;30.60
50738;DHT22;36703;48.154;17.126;2023-03-12T17:42:34;13.00;30.80
50738;DHT22;36703;48.154;17.126;2023-03-12T17:46:36;13.10;30.80
50738;DHT22;36703;48.154;17.126;2023-03-12T17:50:39;13.10;30.80
50738;DHT22;36703;48.154;17.126;2023-03-12T17:54:41;13.10;30.90
50738;DHT22;36703;48.154;17.126;2023-03-12T17:58:43;13.00;31.10
50738;DHT22;36703;48.154;17.126;2023-03-12T18:02:44;12.90;31.40
50738;DHT22;36703;48.154;17.126;2023-03-12T18:06:46;12.80;31.60
50738;DHT22;36703;48.154;17.126;2023-03-12T18:10:47;12.80;31.70
50738;DHT22;36703;48.154;17.126;2023-03-12T18:14:49;12.80;31.70
50738;DHT22;36703;48.154;17.126;2023-03-12T18:18:50;12.80;31.70
50738;DHT22;36703;48.154;17.126;2023-03-12T18:22:52;12.70;32.00
50738;DHT22;36703;48.154;17.126;2023-03-12T18:26:53;12.60;32.20
50738;DHT22;36703;48.154;17.126;2023-03-12T18:30:54;12.60;32.40
50738;DHT22;36703;48.154;17.126;2023-03-12T18:34:56;12.50;32.50
50738;DHT22;36703;48.154;17.126;2023-03-12T18:38:57;12.50;32.50
50738;DHT22;36703;48.154;17.126;2023-03-12T18:42:59;12.50;32.60
50738;DHT22;36703;48.154;17.126;2023-03-12T18:47:01;12.60;32.50
50738;DHT22;36703;48.154;17.126;2023-03-12T18:51:02;12.60;32.60
50738;DHT22;36703;48.154;17.126;2023-03-12T18:55:03;12.40;32.80
50738;DHT22;36703;48.154;17.126;2023-03-12T18:59:06;12.40;33.00
50738;DHT22;36703;48.154;17.126;2023-03-12T19:03:09;12.40;33.20
50738;DHT22;36703;48.154;17.126;2023-03-12T19:07:11;12.30;33.40
50738;DHT22;36703;48.154;17.126;2023-03-12T19:11:13;12.20;33.50
50738;DHT22;36703;48.154;17.126;2023-03-12T19:15:15;12.10;33.80
50738;DHT22;36703;48.154;17.126;2023-03-12T19:19:16;12.20;33.90
50738;DHT22;36703;48.154;17.126;2023-03-12T19:23:18;12.10;33.90
50738;DHT22;36703;48.154;17.126;2023-03-12T19:27:19;12.10;34.10
50738;DHT22;36703;48.154;17.126;2023-03-12T19:31:20;12.10;34.30
50738;DHT22;36703;48.154;17.126;2023-03-12T19:35:22;12.10;34.40
50738;DHT22;36703;48.154;17.126;2023-03-12T19:39:23;12.00;34.60
50738;DHT22;36703;48.154;17.126;2023-03-12T19:43:25;12.00;34.60
50738;DHT22;36703;48.154;17.126;2023-03-12T19:47:27;12.10;34.50
50738;DHT22;36703;48.154;17.126;2023-03-12T19:51:28;12.20;34.50
50738;DHT22;36703;48.154;17.126;2023-03-12T19:55:29;12.10;34.60
50738;DHT22;36703;48.154;17.126;2023-03-12T19:59:31;12.10;34.60
50738;DHT22;36703;48.154;17.126;2023-03-12T20:03:32;12.10;34.80
50738;DHT22;36703;48.154;17.126;2023-03-12T20:07:33;12.10;34.90
50738;DHT22;36703;48.154;17.126;2023-03-12T20:11:35;12.00;35.10
50738;DHT22;36703;48.154;17.126;2023-03-12T20:15:36;12.10;35.20
50738;DHT22;36703;48.154;17.126;2023-03-12T20:19:39;12.10;35.30
50738;DHT22;36703;48.154;17.126;2023-03-12T20:23:41;12.10;35.50
50738;DHT22;36703;48.154;17.126;2023-03-12T20:27:42;12.10;35.70
50738;DHT22;36703;48.154;17.126;2023-03-12T20:31:43;12.00;37.00
50738;DHT22;36703;48.154;17.126;2023-03-12T20:35:45;11.90;37.00
50738;DHT22;36703;48.154;17.126;2023-03-12T20:39:46;11.80;37.50
50738;DHT22;36703;48.154;17.126;2023-03-12T20:43:47;11.90;37.60
50738;DHT22;36703;48.154;17.126;2023-03-12T20:47:49;12.00;37.80
50738;DHT22;36703;48.154;17.126;2023-03-12T20:51:50;12.10;37.90
50738;DHT22;36703;48.154;17.126;2023-03-12T20:55:51;12.10;38.10
50738;DHT22;36703;48.154;17.126;2023-03-12T20:59:53;12.00;38.70
50738;DHT22;36703;48.154;17.126;2023-03-12T21:03:55;11.90;39.10
50738;DHT22;36703;48.154;17.126;2023-03-12T21:07:57;11.90;39.30
50738;DHT22;36703;48.154;17.126;2023-03-12T21:11:59;12.00;39.20
50738;DHT22;36703;48.154;17.126;2023-03-12T21:16:00;12.10;39.20
50738;DHT22;36703;48.154;17.126;2023-03-12T21:20:09;12.20;39.20
50738;DHT22;36703;48.154;17.126;2023-03-12T21:24:17;12.30;39.30
50738;DHT22;36703;48.154;17.126;2023-03-12T21:28:18;12.30;39.50
50738;DHT22;36703;48.154;17.126;2023-03-12T21:32:20;12.20;40.00
50738;DHT22;36703;48.154;17.126;2023-03-12T21:36:22;12.10;40.40
50738;DHT22;36703;48.154;17.126;2023-03-12T21:40:23;12.00;40.60
50738;DHT22;36703;48.154;17.126;2023-03-12T21:44:25;11.90;41.10
50738;DHT22;36703;48.154;17.126;2023-03-12T21:48:26;11.80;41.70
50738;DHT22;36703;48.154;17.126;2023-03-12T21:52:27;11.80;42.10
50738;DHT22;36703;48.154;17.126;2023-03-12T21:56:29;11.80;42.30
50738;DHT22;36703;48.154;17.126;2023-03-12T22:00:30;11.70;42.50
50738;DHT22;36703;48.154;17.126;2023-03-12T22:04:32;11.60;42.90
50738;DHT22;36703;48.154;17.126;2023-03-12T22:08:33;11.60;43.40
50738;DHT22;36703;48.154;17.126;2023-03-12T22:12:35;11.60;43.50
50738;DHT22;36703;48.154;17.126;2023-03-12T22:16:36;11.50;43.70
50738;DHT22;36703;48.154;17.126;2023-03-12T22:20:37;11.40;43.90
50738;DHT22;36703;48.154;17.126;2023-03-12T22:24:39;11.40;44.10
50738;DHT22;36703;48.154;17.126;2023-03-12T22:28:41;11.50;44.10
50738;DHT22;36703;48.154;17.126;2023-03-12T22:32:42;11.50;44.00
50738;DHT22;36703;48.154;17.126;2023-03-12T22:36:43;11.50;44.00
50738;DHT22;36703;48.154;17.126;2023-03-12T22:40:45;11.50;44.00
50738;DHT22;36703;48.154;17.126;2023-03-12T22:44:46;11.50;44.10
50738;DHT22;36703;48.154;17.126;2023-03-12T22:48:51;11.40;44.20
50738;DHT22;36703;48.154;17.126;2023-03-12T22:52:53;11.40;44.40
50738;DHT22;36703;48.154;17.126;2023-03-12T22:56:55;11.30;44.40
50738;DHT22;36703;48.154;17.126;2023-03-12T23:01:03;11.30;44.70
50738;DHT22;36703;48.154;17.126;2023-03-12T23:05:08;11.30;44.40
50738;DHT22;36703;48.154;17.126;2023-03-12T23:09:10;11.40;44.40
50738;DHT22;36703;48.154;17.126;2023-03-12T23:13:11;11.40;44.40
50738;DHT22;36703;48.154;17.126;2023-03-12T23:17:12;11.40;44.30
50738;DHT22;36703;48.154;17.126;2023-03-12T23:21:15;11.50;44.20
50738;DHT22;36703;48.154;17.126;2023-03-12T23:25:18;11.60;44.00
50738;DHT22;36703;48.154;17.126;2023-03-12T23:29:19;11.70;43.90
50738;DHT22;36703;48.154;17.126;2023-03-12T23:33:21;11.70;43.70
50738;DHT22;36703;48.154;17.126;2023-03-12T23:37:22;11.70;43.70
50738;DHT22;36703;48.154;17.126;2023-03-12T23:41:24;11.70;43.70
50738;DHT22;36703;48.154;17.126;2023-03-12T23:45:27;11.70;43.70
50738;DHT22;36703;48.154;17.126;2023-03-12T23:49:28;11.70;43.80
50738;DHT22;36703;48.154;17.126;2023-03-12T23:53:30;11.60;43.90
50738;DHT22;36703;48.154;17.126;2023-03-12T23:57:31;11.50;43.90
